Time;durP1;ratioP1;P1;durP2;ratioP2;P2;SDS_P1;SDS_P2;PMS_P1;PMS_P2;Temp;Humidity;BMP_temperature;BMP_pressure;BME280_temperature;BME280_humidity;BME280_pressure;Samples;Min_cycle;Max_cycle;Signal;HPM_P1;HPM_P2
2022/02/09 00:00:07;;;;;;;7.28;5.90;;;;;;;;;;5096445;28;20194;-66
2022/02/09 00:05:30;;;;;;;7.95;6.15;;;;;;;;;;5096267;28;20534;-66
2022/02/09 00:08:02;;;;;;;6.00;5.13;;;;;;;;;;5096649;28;20250;-65
2022/02/09 00:10:32;;;;;;;7.53;5.90;;;;;;;;;;5096303;28;20273;-66
2022/02/09 00:13:17;;;;;;;9.88;6.40;;;;;;;;;;5096339;28;20654;-67
2022/02/09 00:15:51;;;;;;;10.70;7.23;;;;;;;;;;5096181;28;20268;-67
2022/02/09 00:18:30;;;;;;;6.97;5.60;;;;;;;;;;5096821;28;20481;-66
2022/02/09 00:21:16;;;;;;;8.32;6.40;;;;;;;;;;5096421;28;20440;-66
2022/02/09 00:32:26;;;;;;;12.55;7.70;;;;;;;;;;5096247;28;20394;-66
2022/02/09 00:40:53;;;;;;;8.77;7.72;;;;;;;;;;5096092;28;20172;-66
2022/02/09 00:43:45;;;;;;;7.38;6.32;;;;;;;;;;5096046;28;20235;-66
2022/02/09 01:11:37;;;;;;;5.30;4.80;;;;;;;;;;5095672;28;20633;-66
2022/02/09 01:39:13;;;;;;;4.50;4.10;;;;;;;;;;5094974;28;20179;-65
2022/02/09 01:55:38;;;;;;;9.43;5.10;;;;;;;;;;5094352;28;20234;-66
2022/02/09 01:58:07;;;;;;;8.63;4.80;;;;;;;;;;5094191;28;20266;-65
2022/02/09 02:00:34;;;;;;;5.17;4.67;;;;;;;;;;5094404;28;20246;-65
2022/02/09 02:03:01;;;;;;;4.93;4.45;;;;;;;;;;5094091;28;20524;-66
2022/02/09 02:05:29;;;;;;;6.40;5.32;;;;;;;;;;5094384;28;20268;-65
2022/02/09 02:08:00;;;;;;;5.75;5.15;;;;;;;;;;5094897;28;20534;-65
2022/02/09 02:10:34;;;;;;;8.02;5.10;;;;;;;;;;5093989;28;20184;-65
2022/02/09 02:13:17;;;;;;;8.82;5.35;;;;;;;;;;5094493;28;20208;-66
2022/02/09 02:16:12;;;;;;;4.77;4.37;;;;;;;;;;5094201;28;20182;-65
2022/02/09 02:18:41;;;;;;;7.20;5.00;;;;;;;;;;5094389;28;20540;-65
2022/02/09 02:21:23;;;;;;;6.63;4.78;;;;;;;;;;5093714;28;20193;-65
2022/02/09 02:26:47;;;;;;;7.40;6.73;;;;;;;;;;5084791;28;20930;-65
2022/02/09 02:29:42;;;;;;;4.97;4.43;;;;;;;;;;5094096;28;20481;-66
2022/02/09 02:38:10;;;;;;;6.53;5.05;;;;;;;;;;5093265;28;20217;-65
2022/02/09 02:47:08;;;;;;;4.22;3.83;;;;;;;;;;5094431;28;20912;-65
2022/02/09 02:58:45;;;;;;;5.93;5.43;;;;;;;;;;5094042;28;20221;-66
2022/02/09 03:09:51;;;;;;;9.20;6.50;;;;;;;;;;5093370;28;20596;-66
2022/02/09 03:12:15;;;;;;;6.25;5.68;;;;;;;;;;5093253;28;20206;-66
2022/02/09 03:14:50;;;;;;;5.72;5.22;;;;;;;;;;5093304;28;20182;-65
2022/02/09 03:17:22;;;;;;;7.33;6.63;;;;;;;;;;5093096;28;20239;-65
2022/02/09 03:19:59;;;;;;;7.78;5.78;;;;;;;;;;5093508;28;20438;-66
2022/02/09 03:22:37;;;;;;;6.40;5.60;;;;;;;;;;5093407;28;20237;-66
2022/02/09 03:44:52;;;;;;;6.40;5.80;;;;;;;;;;5097137;28;20226;-66
2022/02/09 03:47:31;;;;;;;7.07;6.28;;;;;;;;;;5096983;28;20223;-66
2022/02/09 03:50:28;;;;;;;7.38;5.82;;;;;;;;;;5096892;28;20191;-66
2022/02/09 03:56:12;;;;;;;6.70;6.03;;;;;;;;;;5071788;28;20205;-66
2022/02/09 03:58:39;;;;;;;5.90;5.40;;;;;;;;;;5097023;28;20475;-66
2022/02/09 04:01:06;;;;;;;7.85;5.25;;;;;;;;;;5096734;28;20575;-65
2022/02/09 04:03:35;;;;;;;5.93;5.32;;;;;;;;;;5096618;28;20197;-65
2022/02/09 04:06:02;;;;;;;5.50;5.00;;;;;;;;;;5096661;28;20253;-66
2022/02/09 04:08:32;;;;;;;5.88;5.38;;;;;;;;;;5096553;28;20273;-65
2022/02/09 04:11:08;;;;;;;5.95;5.35;;;;;;;;;;5096206;28;20638;-65
2022/02/09 04:13:44;;;;;;;5.45;4.95;;;;;;;;;;5096737;28;20189;-66
2022/02/09 04:16:20;;;;;;;5.82;5.32;;;;;;;;;;5096166;28;20184;-66
2022/02/09 04:19:00;;;;;;;5.10;4.60;;;;;;;;;;5096425;28;20296;-67
2022/02/09 04:38:06;;;;;;;5.38;4.95;;;;;;;;;;5095933;28;20282;-66
2022/02/09 04:41:19;;;;;;;6.50;5.30;;;;;;;;;;5096468;28;20572;-65
2022/02/09 04:43:46;;;;;;;5.10;4.63;;;;;;;;;;5095871;28;20196;-65
2022/02/09 04:46:49;;;;;;;5.13;4.63;;;;;;;;;;5096088;28;20604;-68
2022/02/09 04:52:14;;;;;;;5.22;4.70;;;;;;;;;;5095907;28;20189;-67
2022/02/09 04:54:47;;;;;;;4.40;4.07;;;;;;;;;;5095241;28;20189;-68
2022/02/09 04:57:15;;;;;;;5.55;5.05;;;;;;;;;;5095171;28;20234;-68
2022/02/09 04:59:51;;;;;;;4.93;4.53;;;;;;;;;;5095519;28;20193;-68
2022/02/09 05:02:42;;;;;;;5.35;4.85;;;;;;;;;;5095852;28;20466;-68
2022/02/09 05:19:57;;;;;;;5.53;4.93;;;;;;;;;;5115423;28;20253;-68
2022/02/09 05:22:22;;;;;;;6.47;5.88;;;;;;;;;;5115070;28;20203;-68
2022/02/09 05:25:02;;;;;;;6.60;5.97;;;;;;;;;;5115375;27;20223;-69
2022/02/09 05:27:47;;;;;;;6.20;5.60;;;;;;;;;;5115392;28;20249;-68
2022/02/09 05:30:14;;;;;;;8.07;6.00;;;;;;;;;;5115566;28;20604;-67
2022/02/09 05:32:41;;;;;;;6.90;5.78;;;;;;;;;;5115786;28;20613;-68
2022/02/09 05:35:09;;;;;;;6.47;5.95;;;;;;;;;;5115137;28;20211;-68
2022/02/09 05:37:36;;;;;;;6.95;5.93;;;;;;;;;;5114959;28;20575;-68
2022/02/09 05:40:05;;;;;;;7.60;6.43;;;;;;;;;;5114860;28;20673;-68
2022/02/09 05:42:33;;;;;;;7.78;6.97;;;;;;;;;;5115076;28;20448;-67
2022/02/09 05:45:09;;;;;;;6.20;5.60;;;;;;;;;;5115166;28;20279;-68
2022/02/09 05:50:26;;;;;;;7.72;6.97;;;;;;;;;;5114295;28;20201;-68
2022/02/09 05:53:05;;;;;;;7.63;6.93;;;;;;;;;;5115525;28;20212;-69
2022/02/09 05:55:45;;;;;;;9.38;8.43;;;;;;;;;;5115001;28;20192;-68
2022/02/09 05:58:21;;;;;;;8.50;7.70;;;;;;;;;;5114719;28;20224;-69
2022/02/09 06:00:53;;;;;;;10.48;9.07;;;;;;;;;;5115483;28;20192;-68
2022/02/09 06:03:20;;;;;;;11.02;9.10;;;;;;;;;;5115484;28;20199;-69
2022/02/09 06:05:48;;;;;;;10.60;9.50;;;;;;;;;;5114369;28;20230;-69
2022/02/09 06:08:15;;;;;;;15.45;9.95;;;;;;;;;;5115399;28;20208;-69
2022/02/09 06:10:50;;;;;;;12.27;10.38;;;;;;;;;;5114259;28;20196;-69
2022/02/09 06:13:23;;;;;;;11.88;10.60;;;;;;;;;;5114649;28;20266;-70
2022/02/09 06:19:36;;;;;;;12.25;9.73;;;;;;;;;;5114844;28;20636;-70
2022/02/09 06:21:40;;;;;;;11.65;10.38;;;;;;;;;;5113812;28;20563;-69
2022/02/09 06:24:08;;;;;;;13.32;11.60;;;;;;;;;;5114434;28;20279;-70
2022/02/09 06:26:36;;;;;;;12.43;10.82;;;;;;;;;;5114246;28;20239;-68
2022/02/09 06:29:04;;;;;;;13.30;11.88;;;;;;;;;;5113957;28;20236;-68
2022/02/09 06:31:34;;;;;;;11.63;10.43;;;;;;;;;;5114467;28;20189;-70
2022/02/09 06:34:01;;;;;;;15.77;11.80;;;;;;;;;;5113914;28;20434;-69
2022/02/09 06:36:29;;;;;;;13.98;11.52;;;;;;;;;;5113739;28;20205;-69
2022/02/09 06:39:03;;;;;;;12.52;11.23;;;;;;;;;;5114054;28;20604;-69
2022/02/09 06:41:31;;;;;;;12.65;10.13;;;;;;;;;;5114013;28;20188;-68
2022/02/09 06:43:59;;;;;;;16.52;10.80;;;;;;;;;;5114105;28;20195;-67
2022/02/09 06:46:31;;;;;;;12.45;11.15;;;;;;;;;;5114340;28;20665;-67
2022/02/09 06:49:03;;;;;;;11.35;10.25;;;;;;;;;;5114652;28;20193;-68
2022/02/09 06:51:33;;;;;;;10.10;9.10;;;;;;;;;;5114484;28;20181;-67
2022/02/09 06:54:03;;;;;;;12.02;10.50;;;;;;;;;;5113715;28;20196;-68
2022/02/09 06:56:44;;;;;;;10.35;9.35;;;;;;;;;;5113959;28;20646;-67
2022/02/09 06:59:15;;;;;;;11.02;10.13;;;;;;;;;;5114157;28;20208;-67
2022/02/09 07:01:42;;;;;;;8.20;7.38;;;;;;;;;;5116368;28;20625;-68
2022/02/09 07:04:10;;;;;;;8.55;7.05;;;;;;;;;;5118228;28;20230;-67
2022/02/09 07:06:37;;;;;;;11.00;8.48;;;;;;;;;;5118002;28;20309;-67
2022/02/09 07:09:05;;;;;;;9.20;8.35;;;;;;;;;;5118080;28;20196;-68
2022/02/09 07:11:33;;;;;;;9.27;7.15;;;;;;;;;;5118004;28;20195;-67
2022/02/09 07:14:00;;;;;;;7.43;6.72;;;;;;;;;;5117993;28;20230;-68
2022/02/09 07:16:30;;;;;;;7.82;7.03;;;;;;;;;;5117917;28;20225;-69
2022/02/09 07:18:57;;;;;;;6.88;6.18;;;;;;;;;;5118687;28;20255;-68
2022/02/09 07:21:28;;;;;;;7.10;6.28;;;;;;;;;;5117880;28;20235;-67
2022/02/09 07:23:57;;;;;;;9.27;7.38;;;;;;;;;;5117790;28;20180;-67
2022/02/09 07:26:29;;;;;;;5.90;5.40;;;;;;;;;;5117429;28;20245;-67
2022/02/09 07:28:57;;;;;;;6.28;5.60;;;;;;;;;;5118256;28;20190;-68
2022/02/09 07:31:24;;;;;;;6.80;6.10;;;;;;;;;;5117657;28;20200;-67
2022/02/09 07:33:54;;;;;;;6.50;4.85;;;;;;;;;;5117293;28;20204;-66
2022/02/09 07:36:21;;;;;;;6.10;5.57;;;;;;;;;;5117150;28;20644;-67
2022/02/09 07:38:48;;;;;;;7.78;7.00;;;;;;;;;;5116931;28;20251;-67
2022/02/09 07:41:17;;;;;;;4.80;4.28;;;;;;;;;;5117134;28;20214;-66
2022/02/09 07:43:50;;;;;;;7.45;6.45;;;;;;;;;;5117998;28;20209;-67
2022/02/09 07:46:37;;;;;;;6.50;5.72;;;;;;;;;;5117467;28;20198;-67
2022/02/09 07:49:10;;;;;;;7.68;5.28;;;;;;;;;;5117547;28;20207;-68
2022/02/09 07:51:55;;;;;;;6.40;5.80;;;;;;;;;;5117363;28;20189;-67
2022/02/09 07:54:25;;;;;;;6.60;5.47;;;;;;;;;;5116892;28;20233;-67
2022/02/09 07:56:53;;;;;;;6.55;5.53;;;;;;;;;;5117064;28;20193;-66
2022/02/09 07:59:20;;;;;;;6.63;5.85;;;;;;;;;;5116665;28;20213;-68
2022/02/09 08:01:48;;;;;;;6.68;5.15;;;;;;;;;;5116744;28;20286;-67
2022/02/09 08:04:17;;;;;;;5.03;4.35;;;;;;;;;;5116763;28;20230;-67
2022/02/09 08:06:45;;;;;;;5.40;4.90;;;;;;;;;;5117338;28;20227;-67
2022/02/09 08:09:19;;;;;;;5.47;4.97;;;;;;;;;;5116939;28;20207;-67
2022/02/09 08:11:54;;;;;;;6.45;5.63;;;;;;;;;;5116820;28;20216;-68
2022/02/09 08:28:43;;;;;;;4.45;4.13;;;;;;;;;;5108940;28;20299;-68
2022/02/09 08:33:55;;;;;;;7.88;4.72;;;;;;;;;;5105560;28;20558;-66
2022/02/09 08:36:23;;;;;;;6.38;5.68;;;;;;;;;;5116423;28;20283;-68
2022/02/09 08:38:51;;;;;;;7.78;5.50;;;;;;;;;;5116284;28;20305;-67
2022/02/09 08:41:19;;;;;;;5.63;4.82;;;;;;;;;;5116660;28;20604;-67
2022/02/09 08:43:46;;;;;;;6.40;5.70;;;;;;;;;;5116613;28;20279;-67
2022/02/09 08:46:15;;;;;;;7.47;5.05;;;;;;;;;;5116201;28;20286;-66
2022/02/09 08:48:42;;;;;;;7.50;5.35;;;;;;;;;;5116963;28;20199;-67
2022/02/09 08:51:10;;;;;;;6.20;5.50;;;;;;;;;;5116916;28;20307;-67
2022/02/09 08:53:38;;;;;;;7.78;6.97;;;;;;;;;;5116093;28;20538;-66
2022/02/09 08:56:08;;;;;;;7.72;5.38;;;;;;;;;;5116024;28;20286;-67
2022/02/09 08:58:36;;;;;;;7.30;6.47;;;;;;;;;;5115761;28;20222;-67
2022/02/09 09:01:09;;;;;;;8.98;6.30;;;;;;;;;;5115660;28;20200;-67
2022/02/09 09:03:45;;;;;;;6.82;6.18;;;;;;;;;;5116217;28;20184;-67
2022/02/09 09:06:17;;;;;;;14.68;6.28;;;;;;;;;;5116321;28;20277;-67
2022/02/09 09:09:00;;;;;;;7.75;6.95;;;;;;;;;;5116066;28;20242;-67
2022/02/09 09:31:33;;;;;;;12.27;8.55;;;;;;;;;;5115314;28;20549;-68
2022/02/09 09:59:28;;;;;;;9.63;8.00;;;;;;;;;;5115436;28;20304;-68
2022/02/09 10:01:54;;;;;;;14.43;8.85;;;;;;;;;;5114772;28;20651;-68
2022/02/09 10:04:38;;;;;;;9.07;8.13;;;;;;;;;;5114805;28;20253;-68
2022/02/09 10:32:47;;;;;;;16.08;9.00;;;;;;;;;;5114203;28;20179;-68
2022/02/09 10:35:23;;;;;;;13.00;9.48;;;;;;;;;;5114240;28;20185;-67
2022/02/09 10:37:50;;;;;;;13.88;8.10;;;;;;;;;;5113825;28;20185;-69
2022/02/09 10:40:28;;;;;;;12.88;10.50;;;;;;;;;;5113729;28;20216;-68
2022/02/09 10:43:00;;;;;;;11.75;8.70;;;;;;;;;;5114502;28;20202;-68
2022/02/09 10:45:34;;;;;;;21.15;9.60;;;;;;;;;;5113788;28;20277;-66
2022/02/09 10:48:02;;;;;;;14.45;8.80;;;;;;;;;;5114476;28;20527;-66
2022/02/09 10:50:32;;;;;;;13.70;8.82;;;;;;;;;;5113672;28;20295;-66
2022/02/09 10:53:00;;;;;;;9.52;7.82;;;;;;;;;;5113708;28;20207;-67
2022/02/09 10:55:28;;;;;;;12.50;8.80;;;;;;;;;;5114345;28;20615;-67
2022/02/09 10:57:56;;;;;;;12.13;8.57;;;;;;;;;;5113519;28;20203;-67
2022/02/09 11:00:24;;;;;;;13.70;8.18;;;;;;;;;;5113545;28;20231;-67
2022/02/09 11:02:51;;;;;;;12.27;10.48;;;;;;;;;;5113544;28;20207;-68
2022/02/09 11:05:20;;;;;;;11.15;7.72;;;;;;;;;;5113672;28;20263;-68
2022/02/09 11:07:48;;;;;;;12.95;9.07;;;;;;;;;;5113968;28;20264;-67
2022/02/09 11:10:15;;;;;;;15.82;11.23;;;;;;;;;;5113923;28;20284;-67
2022/02/09 11:12:43;;;;;;;14.02;10.50;;;;;;;;;;5113517;28;20227;-67
2022/02/09 11:15:11;;;;;;;14.32;9.95;;;;;;;;;;5113520;28;20649;-67
2022/02/09 11:17:39;;;;;;;15.10;10.60;;;;;;;;;;5113724;28;20203;-66
2022/02/09 11:20:09;;;;;;;10.90;8.65;;;;;;;;;;5113403;28;20216;-66
2022/02/09 11:22:41;;;;;;;11.45;9.40;;;;;;;;;;5113706;28;20197;-67
2022/02/09 11:25:13;;;;;;;12.20;9.45;;;;;;;;;;5113714;28;20204;-66
2022/02/09 11:27:47;;;;;;;12.90;10.02;;;;;;;;;;5114179;28;20305;-66
2022/02/09 11:30:23;;;;;;;12.90;10.40;;;;;;;;;;5113968;28;20188;-66
2022/02/09 11:33:02;;;;;;;14.50;9.40;;;;;;;;;;5114396;28;20191;-67
2022/02/09 11:35:44;;;;;;;14.23;10.07;;;;;;;;;;5113954;28;20192;-67
2022/02/09 11:38:26;;;;;;;17.33;8.63;;;;;;;;;;5114459;28;20208;-67
2022/02/09 11:41:07;;;;;;;11.27;8.98;;;;;;;;;;5114428;28;20548;-67
2022/02/09 11:46:49;;;;;;;12.38;9.15;;;;;;;;;;5113344;28;20184;-67
2022/02/09 11:52:34;;;;;;;12.68;10.20;;;;;;;;;;5118352;28;20265;-67
2022/02/09 11:55:48;;;;;;;11.35;8.82;;;;;;;;;;5118409;28;20184;-67
2022/02/09 12:10:06;;;;;;;11.90;10.18;;;;;;;;;;5117208;28;20185;-66
2022/02/09 12:13:06;;;;;;;12.38;9.98;;;;;;;;;;5117779;27;20643;-67
2022/02/09 12:18:57;;;;;;;11.35;8.15;;;;;;;;;;5117520;28;20179;-68
2022/02/09 12:21:38;;;;;;;8.15;6.30;;;;;;;;;;5116499;28;20661;-67
2022/02/09 12:24:18;;;;;;;11.50;9.40;;;;;;;;;;5116410;28;20212;-67
2022/02/09 12:26:53;;;;;;;10.10;8.00;;;;;;;;;;5116401;28;20276;-68
2022/02/09 12:29:20;;;;;;;12.00;8.63;;;;;;;;;;5117045;28;20191;-69
2022/02/09 12:31:49;;;;;;;10.45;8.13;;;;;;;;;;5116393;28;20478;-68
2022/02/09 12:34:23;;;;;;;9.35;7.88;;;;;;;;;;5116609;28;20280;-67
2022/02/09 12:36:52;;;;;;;9.73;7.90;;;;;;;;;;5116187;28;20191;-67
2022/02/09 12:39:20;;;;;;;7.73;6.93;;;;;;;;;;5116227;28;20241;-69
2022/02/09 12:41:47;;;;;;;8.32;6.78;;;;;;;;;;5116177;28;20530;-68
2022/02/09 12:44:21;;;;;;;7.77;6.97;;;;;;;;;;5116335;28;20283;-68
2022/02/09 12:46:49;;;;;;;7.93;7.20;;;;;;;;;;5116514;28;20458;-68
2022/02/09 12:49:18;;;;;;;10.90;7.60;;;;;;;;;;5115568;28;20204;-67
2022/02/09 12:51:46;;;;;;;11.35;7.45;;;;;;;;;;5115308;28;20842;-67
2022/02/09 12:54:17;;;;;;;10.43;7.17;;;;;;;;;;5115660;28;20200;-67
2022/02/09 12:56:46;;;;;;;6.40;5.77;;;;;;;;;;5116018;28;20428;-68
2022/02/09 12:59:14;;;;;;;8.47;7.60;;;;;;;;;;5113928;28;20483;-68
2022/02/09 13:01:43;;;;;;;7.40;5.97;;;;;;;;;;5115534;28;20449;-71
2022/02/09 13:04:12;;;;;;;8.00;5.47;;;;;;;;;;5115365;28;20438;-68
2022/02/09 13:06:45;;;;;;;5.53;4.97;;;;;;;;;;5116320;28;20549;-68
2022/02/09 13:09:17;;;;;;;8.03;6.10;;;;;;;;;;5115469;28;20177;-68
2022/02/09 13:11:44;;;;;;;7.30;6.60;;;;;;;;;;5115851;28;20445;-67
2022/02/09 13:14:15;;;;;;;8.55;5.18;;;;;;;;;;5115091;28;20202;-67
2022/02/09 13:16:53;;;;;;;5.93;5.00;;;;;;;;;;5115702;28;20188;-67
2022/02/09 13:19:44;;;;;;;6.47;5.70;;;;;;;;;;5115298;28;20443;-67
2022/02/09 14:11:29;;;;;;;3.50;3.20;;;;;;;;;;5112974;28;20675;-67
2022/02/09 14:14:11;;;;;;;4.27;3.87;;;;;;;;;;5114393;28;20476;-66
2022/02/09 14:52:44;;;;;;;5.55;5.05;;;;;;;;;;5088949;28;20189;-66
2022/02/09 14:55:28;;;;;;;4.90;4.40;;;;;;;;;;5114011;28;20185;-66
2022/02/09 14:58:05;;;;;;;7.27;5.60;;;;;;;;;;5113777;28;20450;-67
2022/02/09 15:00:37;;;;;;;6.38;5.30;;;;;;;;;;5113368;28;20527;-67
2022/02/09 15:03:18;;;;;;;5.68;5.00;;;;;;;;;;5113523;28;20666;-66
2022/02/09 15:08:33;;;;;;;7.75;5.13;;;;;;;;;;5100283;28;20505;-66
2022/02/09 15:11:12;;;;;;;5.47;4.97;;;;;;;;;;5113496;28;20699;-67
2022/02/09 15:13:53;;;;;;;5.10;4.60;;;;;;;;;;5113555;28;20184;-66
2022/02/09 15:16:26;;;;;;;6.60;5.40;;;;;;;;;;5113424;28;20184;-66
2022/02/09 15:19:16;;;;;;;8.77;4.93;;;;;;;;;;5113393;28;20184;-66
2022/02/09 15:24:40;;;;;;;5.83;4.73;;;;;;;;;;5118184;28;20646;-65
2022/02/09 15:27:11;;;;;;;10.98;6.60;;;;;;;;;;5117900;28;20443;-64
2022/02/09 15:29:44;;;;;;;7.90;5.53;;;;;;;;;;5117680;28;20270;-65
2022/02/09 15:32:24;;;;;;;5.43;4.80;;;;;;;;;;5117815;28;20185;-66
2022/02/09 15:35:01;;;;;;;5.22;4.72;;;;;;;;;;5118247;28;20180;-65
2022/02/09 15:37:36;;;;;;;4.93;4.53;;;;;;;;;;5117215;28;20191;-65
2022/02/09 15:40:09;;;;;;;7.47;5.90;;;;;;;;;;5116523;28;20471;-65
2022/02/09 15:56:24;;;;;;;4.73;4.20;;;;;;;;;;5117216;28;20272;-66
2022/02/09 16:10:35;;;;;;;5.93;5.40;;;;;;;;;;5116342;28;20793;-66
2022/02/09 16:24:03;;;;;;;7.10;6.10;;;;;;;;;;5116546;27;20819;-66
2022/02/09 16:37:52;;;;;;;7.53;5.90;;;;;;;;;;5116654;28;20202;-66
2022/02/09 16:48:46;;;;;;;8.20;6.35;;;;;;;;;;5100395;28;20204;-65
2022/02/09 16:51:17;;;;;;;6.10;5.50;;;;;;;;;;5116508;28;20231;-66
2022/02/09 16:54:01;;;;;;;6.50;5.90;;;;;;;;;;5116597;28;20428;-66
2022/02/09 16:56:49;;;;;;;6.20;5.60;;;;;;;;;;5115637;28;20192;-66
2022/02/09 17:19:02;;;;;;;8.70;5.93;;;;;;;;;;5115869;28;20405;-66
2022/02/09 17:21:31;;;;;;;6.88;6.28;;;;;;;;;;5115262;28;20212;-66
2022/02/09 17:24:01;;;;;;;8.60;7.07;;;;;;;;;;5115384;28;20207;-66
2022/02/09 17:26:30;;;;;;;7.40;6.70;;;;;;;;;;5117435;28;20586;-66
2022/02/09 17:29:02;;;;;;;8.18;6.53;;;;;;;;;;5115905;28;20239;-66
2022/02/09 17:31:37;;;;;;;7.05;6.40;;;;;;;;;;5115496;28;20204;-68
2022/02/09 17:34:41;;;;;;;7.60;7.00;;;;;;;;;;5115875;28;20287;-66
2022/02/09 17:37:29;;;;;;;9.75;7.18;;;;;;;;;;5115299;28;20294;-66
2022/02/09 17:53:47;;;;;;;9.00;8.10;;;;;;;;;;5114770;28;20444;-66
2022/02/09 17:56:17;;;;;;;10.90;9.77;;;;;;;;;;5114537;28;20198;-66
2022/02/09 17:58:48;;;;;;;9.45;8.45;;;;;;;;;;5114982;28;20196;-66
2022/02/09 18:01:16;;;;;;;9.30;8.30;;;;;;;;;;5114415;28;20204;-66
2022/02/09 18:03:43;;;;;;;11.57;9.13;;;;;;;;;;5113966;28;20191;-67
2022/02/09 18:06:17;;;;;;;9.40;8.50;;;;;;;;;;5114103;28;20223;-66
2022/02/09 18:08:52;;;;;;;11.48;9.88;;;;;;;;;;5114320;27;20183;-66
2022/02/09 18:11:31;;;;;;;11.85;10.63;;;;;;;;;;5114989;28;20191;-66
2022/02/09 18:14:28;;;;;;;13.95;10.95;;;;;;;;;;5114671;28;20184;-66
2022/02/09 18:25:27;;;;;;;11.73;10.52;;;;;;;;;;5113828;28;20184;-66
2022/02/09 18:30:53;;;;;;;11.52;10.30;;;;;;;;;;5114247;28;20212;-66
2022/02/09 18:33:50;;;;;;;12.35;10.52;;;;;;;;;;5113993;28;20179;-66
2022/02/09 18:40:00;;;;;;;12.75;11.45;;;;;;;;;;5113999;28;20184;-67
2022/02/09 18:44:58;;;;;;;16.03;11.33;;;;;;;;;;5113612;28;20192;-67
2022/02/09 18:47:49;;;;;;;12.87;11.53;;;;;;;;;;5114067;28;20834;-67
2022/02/09 19:01:59;;;;;;;11.63;10.43;;;;;;;;;;5113945;28;20608;-67
2022/02/09 19:04:32;;;;;;;12.60;10.77;;;;;;;;;;5113345;28;20196;-66
2022/02/09 19:18:33;;;;;;;15.50;11.27;;;;;;;;;;5093316;28;20832;-72
2022/02/09 19:26:44;;;;;;;13.33;11.13;;;;;;;;;;5092981;28;20426;-72
2022/02/09 19:32:29;;;;;;;11.40;10.30;;;;;;;;;;5093174;28;20201;-73
2022/02/09 19:40:47;;;;;;;12.33;10.80;;;;;;;;;;5051279;28;20194;-72
2022/02/09 19:46:15;;;;;;;13.30;10.60;;;;;;;;;;5092826;28;20234;-74
2022/02/09 19:48:50;;;;;;;12.10;10.80;;;;;;;;;;5093000;28;20194;-69
2022/02/09 19:51:32;;;;;;;11.35;10.15;;;;;;;;;;5092802;28;20504;-69
2022/02/09 19:54:08;;;;;;;11.25;10.10;;;;;;;;;;5092999;28;20212;-69
2022/02/09 19:56:38;;;;;;;12.90;10.80;;;;;;;;;;5092628;28;20193;-70
2022/02/09 19:59:14;;;;;;;12.80;11.40;;;;;;;;;;5092876;28;20448;-70
2022/02/09 20:01:42;;;;;;;14.65;10.75;;;;;;;;;;5092702;28;20473;-70
2022/02/09 20:04:10;;;;;;;14.45;11.55;;;;;;;;;;5092491;28;20196;-70
2022/02/09 20:06:37;;;;;;;58.28;42.42;;;;;;;;;;5092621;28;20266;-67
2022/02/09 20:09:06;;;;;;;18.33;13.32;;;;;;;;;;5095188;28;20296;-68
2022/02/09 20:11:35;;;;;;;19.60;12.70;;;;;;;;;;5096623;28;20540;-66
2022/02/09 20:14:03;;;;;;;18.83;12.07;;;;;;;;;;5096045;28;20444;-66
2022/02/09 20:16:30;;;;;;;24.85;13.10;;;;;;;;;;5096430;28;20200;-66
2022/02/09 20:18:58;;;;;;;26.20;14.30;;;;;;;;;;5096455;28;20245;-66
2022/02/09 20:21:27;;;;;;;24.33;14.40;;;;;;;;;;5096094;28;20511;-66
2022/02/09 20:23:55;;;;;;;27.47;13.93;;;;;;;;;;5096036;28;20471;-67
2022/02/09 20:26:24;;;;;;;18.00;12.95;;;;;;;;;;5096545;28;20565;-66
2022/02/09 20:28:57;;;;;;;14.63;11.10;;;;;;;;;;5096718;28;20194;-66
2022/02/09 20:31:29;;;;;;;13.80;10.68;;;;;;;;;;5096587;28;20627;-66
2022/02/09 20:34:00;;;;;;;13.93;10.97;;;;;;;;;;5096427;28;20182;-66
2022/02/09 20:36:29;;;;;;;11.75;10.50;;;;;;;;;;5096502;28;20439;-66
2022/02/09 20:38:59;;;;;;;16.20;11.60;;;;;;;;;;5095838;28;20194;-66
2022/02/09 20:41:27;;;;;;;13.00;11.47;;;;;;;;;;5096315;28;20507;-65
2022/02/09 20:44:03;;;;;;;11.45;10.25;;;;;;;;;;5095676;28;20489;-66
2022/02/09 20:46:33;;;;;;;19.00;11.50;;;;;;;;;;5095736;28;20186;-66
2022/02/09 20:49:00;;;;;;;15.85;11.40;;;;;;;;;;5095976;28;20205;-66
2022/02/09 20:51:28;;;;;;;17.35;11.50;;;;;;;;;;5096354;28;20669;-66
2022/02/09 20:53:56;;;;;;;14.05;11.85;;;;;;;;;;5095833;28;20580;-66
2022/02/09 20:56:23;;;;;;;12.80;11.18;;;;;;;;;;5095893;28;20288;-66
2022/02/09 20:58:58;;;;;;;13.52;11.02;;;;;;;;;;5095526;28;20197;-66
2022/02/09 21:01:32;;;;;;;14.80;10.85;;;;;;;;;;5096171;28;20213;-65
2022/02/09 21:04:04;;;;;;;13.80;11.00;;;;;;;;;;5095698;28;20220;-66
2022/02/09 21:06:39;;;;;;;15.65;13.73;;;;;;;;;;5095962;28;20481;-66
2022/02/09 21:09:18;;;;;;;24.60;18.77;;;;;;;;;;5095978;28;20546;-65
2022/02/09 21:11:55;;;;;;;15.75;11.60;;;;;;;;;;5095283;28;20196;-65
2022/02/09 21:14:46;;;;;;;18.30;11.90;;;;;;;;;;5095230;28;20280;-66
2022/02/09 21:17:26;;;;;;;17.83;10.10;;;;;;;;;;5095390;28;20420;-67
2022/02/09 21:23:07;;;;;;;12.43;10.50;;;;;;;;;;5095238;28;20525;-66
2022/02/09 21:43:38;;;;;;;15.52;11.63;;;;;;;;;;5094699;28;20204;-65
2022/02/09 21:45:46;;;;;;;14.57;10.38;;;;;;;;;;5094729;28;20210;-66
2022/02/09 21:54:04;;;;;;;15.90;11.40;;;;;;;;;;5094408;28;20189;-66
2022/02/09 21:56:35;;;;;;;12.30;11.00;;;;;;;;;;5094701;28;20438;-66
2022/02/09 21:59:22;;;;;;;14.03;12.23;;;;;;;;;;5094329;28;20472;-66
2022/02/09 22:21:44;;;;;;;17.57;12.27;;;;;;;;;;5093988;28;20189;-66
2022/02/09 22:49:49;;;;;;;12.45;10.98;;;;;;;;;;5093687;28;20457;-66
2022/02/09 22:55:07;;;;;;;12.18;10.68;;;;;;;;;;5093799;28;20188;-66
2022/02/09 22:57:42;;;;;;;11.68;10.43;;;;;;;;;;5093244;28;20232;-66
2022/02/09 23:00:16;;;;;;;11.80;10.32;;;;;;;;;;5094071;28;20216;-65
2022/02/09 23:02:48;;;;;;;12.90;10.00;;;;;;;;;;5093252;28;20213;-65
2022/02/09 23:05:35;;;;;;;16.20;11.43;;;;;;;;;;5093855;28;21079;-66
2022/02/09 23:08:26;;;;;;;12.30;11.00;;;;;;;;;;5094093;28;20188;-66
2022/02/09 23:11:21;;;;;;;14.10;11.07;;;;;;;;;;5093461;28;20450;-66
2022/02/09 23:13:54;;;;;;;12.67;10.40;;;;;;;;;;5093386;28;20193;-66
2022/02/09 23:16:23;;;;;;;12.93;11.20;;;;;;;;;;5093600;28;20904;-66
2022/02/09 23:25:01;;;;;;;13.37;11.30;;;;;;;;;;5011274;28;20423;-66
2022/02/09 23:55:33;;;;;;;15.55;11.70;;;;;;;;;;5096882;28;20445;-66
2022/02/09 23:58:22;;;;;;;13.75;11.00;;;;;;;;;;5097455;28;20541;-66
